My Meet Scores
Karina Contreras, The Gymnastics Shop - MyMeetScores.com
Top100 | Top Teams | Upcoming Meets | Completed Meets | Latest | Add Scores | Help| Support | Bookmark and Share

Karina Contreras, The Gymnastics Shop
Personal Bests
LevelVault BarsBeamFloorAA
39.3009.450 9.3759.45037.250
48.7508.950 9.0008.95034.750
59.0008.575 8.8009.05035.425
78.9507.200 8.3509.20033.000
Meet Scores
Date Meet Team Session Level Division Vault Bars Beam Floor AA
2020-02-22 I-Power Classic The Gymnastics Shop 7 7 SR 8.450 10T 7.000 8 8.350 10 9.200 2 33.000 6
2020-02-07 IGI Chicago Style Meet The Gymnastics Shop 223 7 B 8.850 8T 6.800 18 7.475 16 9.200 12 32.325 16
2020-01-24 Uga Invitational The Gymnastics Shop 2A 7 Sr A 8.350 13 7.200 13 7.200 13 8.725 12 31.475 13
2019-12-20 2019 Women's Hawaiian Pineapple Classic The Gymnastics Shop 5A 7 Ages 13+ 0.000 14*
2019-11-08 Illinois Judges Cup The Gymnastics Shop P2 7 All Ages 8.950 26 6.450 34 8.275 24 8.075 37 31.750 34
2019-03-22 Illinois Gymnastics State Championships The Gymnastics Shop 3 5 SR C 9.000 21T 8.575 20 8.800 12T 9.050 17T 35.425 22
2019-02-23 Kinetic Classic 2019 The Gymnastics Shop 1 5 Older 8.700 9T 8.275 14 8.600 12 8.300 12T 33.875 13
2019-02-08 IGI Chicago Style 2019 The Gymnastics Shop 48 5 632 LaSalle L5 C 8.775 15 8.400 11 8.050 13 9.050 5 34.275 10
2018-12-07 St. Nick Invite 2018 The Gymnastics Shop 1 5 SrB 8.300 19 0.000 21T 0.000 21T 8.500 11 16.800 22
2018-11-30 Ultimate Wish Classic The Gymnastics Shop 6 5 SR A 8.675 13 7.400 16 0.000 21 16.075 21
2018-03-08 Level 4 & 5 State The Gymnastics Shop All 4 Sr A 8.275 27 8.700 16T 8.700 22T 8.700 27 34.375 24T
2018-02-23 Kinetic Classic The Gymnastics Shop 6 4 Older 8.375 66T 8.850 57T 8.475 62T 8.875 66T 34.575 68T
2018-02-08 Nashville Nights 2018 The Gymnastics Shop B03 4 JrC 7.850 8 8.950 4 8.575 7 8.750 6 34.125 7
2018-01-26 King Arthur Invitational The Gymnastics Shop 2 4 Sr A 7.900 13 8.875 4 8.700 8T 8.525 15 34.000 9
2018-01-12 Legacy Elite Winter Classic The Gymnastics Shop 3 4 JrB 8.150 13 8.700 6T 7.500 14 8.450 12T 32.800 13
2017-12-08 St. Nick Invite The Gymnastics Shop 1 4 SrA 8.425 9T 8.550 11 9.000 11 8.775 11 34.750 10
2017-12-01 Ultimate Wish Classic The Gymnastics Shop 10 4 Sr B 8.750 6T 8.200 10 8.450 9T 8.950 7T 34.350 7
2017-10-27 M&M's Pixie Dust Invitational The Gymnastics Shop 4 4 10 yrs. 7.675 17 8.400 12 8.600 10T 8.800 5T 33.475 13
2017-03-30 2017 Illinois Level 3 & 5 State The Gymnastics Shop All 3 Sr B 9.225 25T 9.350 12 9.375 6T 9.300 6 37.250 9
2017-02-17 Big Classic The Gymnastics Shop B 3 Child D 8.900 28T 9.450 4T 9.150 6 9.375 7 36.875 9
2017-01-27 2017 UGA Invitational The Gymnastics Shop B8 3 Sr B 8.750 12T 8.825 9 9.150 9 9.450 4T 36.175 7
2017-01-13 Legacy Elite Winter Classic The Gymnastics Shop B2 3 Jr 9.150 5 9.225 4 8.350 10 9.250 5 35.975 7
2016-12-15 2016 Hawaiian Pineapple Sanction The Gymnastics Shop 2A 3 Ages 10+ 9.300 10 8.950 5 8.600 11T 9.225 4 36.075 4
2016-12-02 Ultimate Wish Classic The Gymnastics Shop 11 3 Sr A 9.075 5 9.125 4T 9.050 4 9.275 3T 36.525 3
Get your scores on
a t-shirt, pin, or hoodie

www.lazysuits.com